sensor_id;sensor_type;location;lat;lon;timestamp;temperature;humidity
1075;DHT22;526;51.392;12.448;2024-02-23T05:01:25;7.70;97.30
1075;DHT22;526;51.392;12.448;2024-02-23T05:03:50;7.70;97.30
1075;DHT22;526;51.392;12.448;2024-02-23T05:06:16;7.60;97.30
1075;DHT22;526;51.392;12.448;2024-02-23T05:08:41;7.60;97.30
1075;DHT22;526;51.392;12.448;2024-02-23T05:11:07;7.50;97.30
1075;DHT22;526;51.392;12.448;2024-02-23T05:13:32;7.50;97.30
1075;DHT22;526;51.392;12.448;2024-02-23T05:15:59;7.50;97.30
1075;DHT22;526;51.392;12.448;2024-02-23T05:18:25;7.50;97.30
1075;DHT22;526;51.392;12.448;2024-02-23T05:20:50;7.50;97.30
1075;DHT22;526;51.392;12.448;2024-02-23T05:23:16;7.50;97.30
1075;DHT22;526;51.392;12.448;2024-02-23T05:25:42;7.50;97.30
1075;DHT22;526;51.392;12.448;2024-02-23T05:28:07;7.50;97.30
1075;DHT22;526;51.392;12.448;2024-02-23T05:30:33;7.60;97.30
1075;DHT22;526;51.392;12.448;2024-02-23T05:32:59;7.70;97.30
1075;DHT22;526;51.392;12.448;2024-02-23T05:35:25;7.70;97.30
1075;DHT22;526;51.392;12.448;2024-02-23T05:37:51;7.70;97.30
1075;DHT22;526;51.392;12.448;2024-02-23T05:40:17;7.70;97.30
1075;DHT22;526;51.392;12.448;2024-02-23T05:42:42;7.60;97.30
1075;DHT22;526;51.392;12.448;2024-02-23T05:45:08;7.60;97.30
1075;DHT22;526;51.392;12.448;2024-02-23T05:47:36;7.60;97.30
1075;DHT22;526;51.392;12.448;2024-02-23T05:50:03;7.60;97.30
1075;DHT22;526;51.392;12.448;2024-02-23T05:52:32;7.60;97.30
1075;DHT22;526;51.392;12.448;2024-02-23T05:54:58;7.50;97.30
1075;DHT22;526;51.392;12.448;2024-02-23T05:57:28;7.50;97.30
1075;DHT22;526;51.392;12.448;2024-02-23T05:59:54;7.40;97.30
1075;DHT22;526;51.392;12.448;2024-02-23T06:02:21;7.40;97.30
1075;DHT22;526;51.392;12.448;2024-02-23T06:04:47;7.30;97.30
1075;DHT22;526;51.392;12.448;2024-02-23T06:07:13;7.30;97.30
1075;DHT22;526;51.392;12.448;2024-02-23T06:09:40;7.30;97.30
1075;DHT22;526;51.392;12.448;2024-02-23T06:12:06;7.20;97.30
1075;DHT22;526;51.392;12.448;2024-02-23T06:14:32;7.20;97.30
1075;DHT22;526;51.392;12.448;2024-02-23T06:16:57;7.20;97.30
1075;DHT22;526;51.392;12.448;2024-02-23T06:19:23;7.10;97.30
1075;DHT22;526;51.392;12.448;2024-02-23T06:21:49;7.10;97.30
1075;DHT22;526;51.392;12.448;2024-02-23T06:24:15;7.10;97.30
1075;DHT22;526;51.392;12.448;2024-02-23T06:26:41;7.10;97.30
1075;DHT22;526;51.392;12.448;2024-02-23T06:29:07;7.10;97.30
1075;DHT22;526;51.392;12.448;2024-02-23T06:31:36;7.10;97.30
1075;DHT22;526;51.392;12.448;2024-02-23T06:34:02;7.00;97.30
1075;DHT22;526;51.392;12.448;2024-02-23T06:36:27;7.00;97.30
1075;DHT22;526;51.392;12.448;2024-02-23T06:38:53;7.00;97.30
1075;DHT22;526;51.392;12.448;2024-02-23T06:41:18;7.00;97.30
1075;DHT22;526;51.392;12.448;2024-02-23T06:43:44;7.00;97.30
1075;DHT22;526;51.392;12.448;2024-02-23T06:46:10;7.00;97.30
1075;DHT22;526;51.392;12.448;2024-02-23T06:48:36;7.10;97.30
1075;DHT22;526;51.392;12.448;2024-02-23T06:51:03;7.00;97.30
1075;DHT22;526;51.392;12.448;2024-02-23T06:53:29;7.10;97.30
1075;DHT22;526;51.392;12.448;2024-02-23T06:55:54;7.10;97.30
1075;DHT22;526;51.392;12.448;2024-02-23T06:58:20;7.10;97.30
1075;DHT22;526;51.392;12.448;2024-02-23T07:00:45;7.10;97.30
1075;DHT22;526;51.392;12.448;2024-02-23T07:03:11;7.10;97.30
1075;DHT22;526;51.392;12.448;2024-02-23T07:05:37;7.10;97.30
1075;DHT22;526;51.392;12.448;2024-02-23T07:08:03;7.10;97.30
1075;DHT22;526;51.392;12.448;2024-02-23T07:10:28;7.10;97.30
1075;DHT22;526;51.392;12.448;2024-02-23T07:12:54;7.10;97.30
1075;DHT22;526;51.392;12.448;2024-02-23T07:15:21;7.10;97.30
1075;DHT22;526;51.392;12.448;2024-02-23T07:17:46;7.10;97.30
1075;DHT22;526;51.392;12.448;2024-02-23T07:20:13;7.10;97.30
1075;DHT22;526;51.392;12.448;2024-02-23T07:22:38;7.10;97.30
1075;DHT22;526;51.392;12.448;2024-02-23T07:25:05;7.20;97.30
1075;DHT22;526;51.392;12.448;2024-02-23T07:27:31;7.20;97.30
1075;DHT22;526;51.392;12.448;2024-02-23T07:29:57;7.20;97.30
1075;DHT22;526;51.392;12.448;2024-02-23T07:32:23;7.20;97.30
1075;DHT22;526;51.392;12.448;2024-02-23T07:34:48;7.20;97.30
1075;DHT22;526;51.392;12.448;2024-02-23T07:37:15;7.20;97.30
1075;DHT22;526;51.392;12.448;2024-02-23T07:39:40;7.20;97.30
1075;DHT22;526;51.392;12.448;2024-02-23T07:42:06;7.20;97.30
1075;DHT22;526;51.392;12.448;2024-02-23T07:44:33;7.20;97.30
1075;DHT22;526;51.392;12.448;2024-02-23T07:46:59;7.20;97.30
1075;DHT22;526;51.392;12.448;2024-02-23T07:49:25;7.20;97.30
1075;DHT22;526;51.392;12.448;2024-02-23T07:51:50;7.20;97.30
1075;DHT22;526;51.392;12.448;2024-02-23T07:54:16;7.20;97.30
1075;DHT22;526;51.392;12.448;2024-02-23T07:56:41;7.20;97.30
1075;DHT22;526;51.392;12.448;2024-02-23T07:59:07;7.20;97.30
1075;DHT22;526;51.392;12.448;2024-02-23T08:01:33;7.20;97.30
1075;DHT22;526;51.392;12.448;2024-02-23T08:03:59;7.30;97.30
1075;DHT22;526;51.392;12.448;2024-02-23T08:06:25;7.20;97.30
1075;DHT22;526;51.392;12.448;2024-02-23T08:08:51;7.20;97.30
1075;DHT22;526;51.392;12.448;2024-02-23T08:11:19;7.20;97.30
1075;DHT22;526;51.392;12.448;2024-02-23T08:13:44;7.20;96.80
1075;DHT22;526;51.392;12.448;2024-02-23T08:16:10;7.30;96.90
1075;DHT22;526;51.392;12.448;2024-02-23T08:18:35;7.30;96.50
1075;DHT22;526;51.392;12.448;2024-02-23T08:21:02;7.30;96.70
1075;DHT22;526;51.392;12.448;2024-02-23T08:23:28;7.30;96.10
1075;DHT22;526;51.392;12.448;2024-02-23T08:25:55;7.40;96.20
1075;DHT22;526;51.392;12.448;2024-02-23T08:28:22;7.40;95.00
1075;DHT22;526;51.392;12.448;2024-02-23T08:30:48;7.50;94.80
1075;DHT22;526;51.392;12.448;2024-02-23T08:33:14;7.50;94.70
1075;DHT22;526;51.392;12.448;2024-02-23T08:35:39;7.60;94.30
1075;DHT22;526;51.392;12.448;2024-02-23T08:38:05;7.60;94.30
1075;DHT22;526;51.392;12.448;2024-02-23T08:40:31;7.70;93.70
1075;DHT22;526;51.392;12.448;2024-02-23T08:42:56;7.70;93.60
1075;DHT22;526;51.392;12.448;2024-02-23T08:45:22;7.80;93.90
1075;DHT22;526;51.392;12.448;2024-02-23T08:47:47;7.90;93.60
1075;DHT22;526;51.392;12.448;2024-02-23T08:50:13;7.90;94.00
1075;DHT22;526;51.392;12.448;2024-02-23T08:52:39;8.00;93.20
1075;DHT22;526;51.392;12.448;2024-02-23T08:55:05;8.00;92.70
1075;DHT22;526;51.392;12.448;2024-02-23T08:57:31;8.00;92.90
1075;DHT22;526;51.392;12.448;2024-02-23T08:59:56;8.00;91.80
1075;DHT22;526;51.392;12.448;2024-02-23T09:02:24;8.00;92.50
1075;DHT22;526;51.392;12.448;2024-02-23T09:04:49;8.10;92.40
1075;DHT22;526;51.392;12.448;2024-02-23T09:07:15;8.10;91.90
1075;DHT22;526;51.392;12.448;2024-02-23T09:09:40;8.10;91.70
1075;DHT22;526;51.392;12.448;2024-02-23T09:12:06;8.10;91.50
1075;DHT22;526;51.392;12.448;2024-02-23T09:14:36;8.20;91.90
1075;DHT22;526;51.392;12.448;2024-02-23T09:17:03;8.30;91.50
1075;DHT22;526;51.392;12.448;2024-02-23T09:19:29;8.40;91.30
1075;DHT22;526;51.392;12.448;2024-02-23T09:21:55;8.40;90.70
1075;DHT22;526;51.392;12.448;2024-02-23T09:24:21;8.40;90.80
1075;DHT22;526;51.392;12.448;2024-02-23T09:26:47;8.40;90.10
1075;DHT22;526;51.392;12.448;2024-02-23T09:29:13;8.40;90.70
1075;DHT22;526;51.392;12.448;2024-02-23T09:31:38;8.40;90.80
1075;DHT22;526;51.392;12.448;2024-02-23T09:34:04;8.40;91.00
1075;DHT22;526;51.392;12.448;2024-02-23T09:36:29;8.50;90.70
1075;DHT22;526;51.392;12.448;2024-02-23T09:38:55;8.50;90.30
1075;DHT22;526;51.392;12.448;2024-02-23T09:41:22;8.60;91.00
1075;DHT22;526;51.392;12.448;2024-02-23T09:43:48;8.60;90.00
1075;DHT22;526;51.392;12.448;2024-02-23T09:46:18;8.70;90.60
1075;DHT22;526;51.392;12.448;2024-02-23T09:48:44;8.60;90.90
1075;DHT22;526;51.392;12.448;2024-02-23T09:51:11;8.60;91.30
1075;DHT22;526;51.392;12.448;2024-02-23T09:53:38;8.70;91.00
1075;DHT22;526;51.392;12.448;2024-02-23T09:56:05;8.70;91.70
1075;DHT22;526;51.392;12.448;2024-02-23T09:58:34;8.80;91.70
1075;DHT22;526;51.392;12.448;2024-02-23T10:01:02;8.80;90.40
1075;DHT22;526;51.392;12.448;2024-02-23T10:03:28;8.80;90.20
1075;DHT22;526;51.392;12.448;2024-02-23T10:05:59;8.90;90.30
1075;DHT22;526;51.392;12.448;2024-02-23T10:08:29;8.80;88.90
1075;DHT22;526;51.392;12.448;2024-02-23T10:10:55;8.60;89.70
1075;DHT22;526;51.392;12.448;2024-02-23T10:13:23;8.80;90.40
1075;DHT22;526;51.392;12.448;2024-02-23T10:15:52;8.80;88.70
1075;DHT22;526;51.392;12.448;2024-02-23T10:18:19;8.70;89.20
1075;DHT22;526;51.392;12.448;2024-02-23T10:20:44;8.80;89.10
1075;DHT22;526;51.392;12.448;2024-02-23T10:23:10;9.00;89.60
1075;DHT22;526;51.392;12.448;2024-02-23T10:25:36;9.10;89.10
1075;DHT22;526;51.392;12.448;2024-02-23T10:28:03;9.10;88.00
1075;DHT22;526;51.392;12.448;2024-02-23T10:30:28;9.00;87.70
1075;DHT22;526;51.392;12.448;2024-02-23T10:32:58;9.00;88.70
1075;DHT22;526;51.392;12.448;2024-02-23T10:35:25;9.10;88.50
1075;DHT22;526;51.392;12.448;2024-02-23T10:37:51;9.20;88.80
1075;DHT22;526;51.392;12.448;2024-02-23T10:40:18;9.10;88.40
1075;DHT22;526;51.392;12.448;2024-02-23T10:42:45;9.10;88.70
1075;DHT22;526;51.392;12.448;2024-02-23T10:45:17;9.10;89.00
1075;DHT22;526;51.392;12.448;2024-02-23T10:47:44;9.10;89.00
1075;DHT22;526;51.392;12.448;2024-02-23T10:50:10;9.20;89.40
1075;DHT22;526;51.392;12.448;2024-02-23T10:52:40;9.20;89.00
1075;DHT22;526;51.392;12.448;2024-02-23T10:55:08;9.20;89.10
1075;DHT22;526;51.392;12.448;2024-02-23T10:57:37;9.20;89.70
1075;DHT22;526;51.392;12.448;2024-02-23T11:00:05;9.30;89.10
1075;DHT22;526;51.392;12.448;2024-02-23T11:02:45;9.30;89.40
1075;DHT22;526;51.392;12.448;2024-02-23T11:05:12;9.20;88.30
1075;DHT22;526;51.392;12.448;2024-02-23T11:07:39;9.10;88.40
1075;DHT22;526;51.392;12.448;2024-02-23T11:10:05;9.00;88.20
1075;DHT22;526;51.392;12.448;2024-02-23T11:12:31;8.90;88.20
1075;DHT22;526;51.392;12.448;2024-02-23T11:14:58;9.00;89.00
1075;DHT22;526;51.392;12.448;2024-02-23T11:17:26;8.90;88.20
1075;DHT22;526;51.392;12.448;2024-02-23T11:19:54;8.90;88.40
1075;DHT22;526;51.392;12.448;2024-02-23T11:22:32;8.90;87.90
1075;DHT22;526;51.392;12.448;2024-02-23T11:25:05;8.90;88.50
1075;DHT22;526;51.392;12.448;2024-02-23T11:27:32;8.90;88.50
1075;DHT22;526;51.392;12.448;2024-02-23T11:30:03;9.00;87.70
1075;DHT22;526;51.392;12.448;2024-02-23T11:32:43;8.90;88.30
1075;DHT22;526;51.392;12.448;2024-02-23T11:35:14;9.00;88.70
1075;DHT22;526;51.392;12.448;2024-02-23T11:37:46;9.00;88.70
1075;DHT22;526;51.392;12.448;2024-02-23T11:40:13;9.00;88.30
1075;DHT22;526;51.392;12.448;2024-02-23T11:42:41;9.00;88.50
1075;DHT22;526;51.392;12.448;2024-02-23T11:45:07;9.10;88.50
1075;DHT22;526;51.392;12.448;2024-02-23T11:47:33;9.10;88.00
1075;DHT22;526;51.392;12.448;2024-02-23T11:49:58;9.00;87.90
1075;DHT22;526;51.392;12.448;2024-02-23T11:52:24;9.00;88.60
1075;DHT22;526;51.392;12.448;2024-02-23T11:54:49;9.10;88.80
1075;DHT22;526;51.392;12.448;2024-02-23T11:57:15;9.20;88.90
1075;DHT22;526;51.392;12.448;2024-02-23T11:59:41;9.20;88.30
1075;DHT22;526;51.392;12.448;2024-02-23T12:02:06;9.20;88.80
1075;DHT22;526;51.392;12.448;2024-02-23T12:04:32;9.30;89.00
1075;DHT22;526;51.392;12.448;2024-02-23T12:06:58;9.30;88.70
1075;DHT22;526;51.392;12.448;2024-02-23T12:09:24;9.40;88.40
1075;DHT22;526;51.392;12.448;2024-02-23T12:11:50;9.40;88.30
1075;DHT22;526;51.392;12.448;2024-02-23T12:14:16;9.20;87.10
1075;DHT22;526;51.392;12.448;2024-02-23T12:16:43;9.10;87.70
1075;DHT22;526;51.392;12.448;2024-02-23T12:19:08;9.10;88.00
1075;DHT22;526;51.392;12.448;2024-02-23T12:21:34;9.10;88.10
1075;DHT22;526;51.392;12.448;2024-02-23T12:24:04;9.10;87.90
1075;DHT22;526;51.392;12.448;2024-02-23T12:26:31;9.10;87.50
1075;DHT22;526;51.392;12.448;2024-02-23T12:31:26;9.20;86.70
1075;DHT22;526;51.392;12.448;2024-02-23T12:33:52;9.10;86.40
1075;DHT22;526;51.392;12.448;2024-02-23T12:36:17;9.00;86.50
1075;DHT22;526;51.392;12.448;2024-02-23T12:38:43;9.00;86.40
1075;DHT22;526;51.392;12.448;2024-02-23T12:41:09;9.00;86.90
1075;DHT22;526;51.392;12.448;2024-02-23T12:43:34;9.00;87.50
1075;DHT22;526;51.392;12.448;2024-02-23T12:46:00;9.10;88.00
1075;DHT22;526;51.392;12.448;2024-02-23T12:48:28;9.10;87.70
1075;DHT22;526;51.392;12.448;2024-02-23T12:50:54;9.10;87.60
1075;DHT22;526;51.392;12.448;2024-02-23T12:53:35;9.10;88.30
1075;DHT22;526;51.392;12.448;2024-02-23T12:56:09;9.10;88.50
1075;DHT22;526;51.392;12.448;2024-02-23T12:58:39;9.10;88.90
1075;DHT22;526;51.392;12.448;2024-02-23T13:01:05;9.10;88.30
1075;DHT22;526;51.392;12.448;2024-02-23T13:03:32;9.10;88.40
1075;DHT22;526;51.392;12.448;2024-02-23T13:05:58;9.10;88.60
1075;DHT22;526;51.392;12.448;2024-02-23T13:08:24;9.10;88.30
1075;DHT22;526;51.392;12.448;2024-02-23T13:10:51;9.10;87.90
1075;DHT22;526;51.392;12.448;2024-02-23T13:13:18;9.10;87.40
1075;DHT22;526;51.392;12.448;2024-02-23T13:15:44;9.00;87.50
1075;DHT22;526;51.392;12.448;2024-02-23T13:18:10;9.00;87.20
1075;DHT22;526;51.392;12.448;2024-02-23T13:20:39;9.00;87.10
1075;DHT22;526;51.392;12.448;2024-02-23T13:23:07;9.00;87.40
1075;DHT22;526;51.392;12.448;2024-02-23T13:25:34;9.00;87.50
1075;DHT22;526;51.392;12.448;2024-02-23T13:27:59;9.00;87.50
1075;DHT22;526;51.392;12.448;2024-02-23T13:30:25;9.00;87.40
1075;DHT22;526;51.392;12.448;2024-02-23T13:32:50;8.90;87.80
1075;DHT22;526;51.392;12.448;2024-02-23T13:35:17;9.00;88.30
1075;DHT22;526;51.392;12.448;2024-02-23T13:37:43;9.00;88.10
1075;DHT22;526;51.392;12.448;2024-02-23T13:40:09;8.90;88.10
1075;DHT22;526;51.392;12.448;2024-02-23T13:42:35;9.00;88.70
1075;DHT22;526;51.392;12.448;2024-02-23T13:45:01;9.00;88.50
1075;DHT22;526;51.392;12.448;2024-02-23T13:47:26;8.90;88.50
1075;DHT22;526;51.392;12.448;2024-02-23T13:49:52;8.90;88.90
1075;DHT22;526;51.392;12.448;2024-02-23T13:52:17;8.90;89.10
1075;DHT22;526;51.392;12.448;2024-02-23T13:54:43;8.90;89.40
1075;DHT22;526;51.392;12.448;2024-02-23T13:57:08;8.90;89.70
1075;DHT22;526;51.392;12.448;2024-02-23T13:59:34;9.00;89.60
1075;DHT22;526;51.392;12.448;2024-02-23T14:02:00;9.00;89.30
1075;DHT22;526;51.392;12.448;2024-02-23T14:04:25;9.00;89.90
1075;DHT22;526;51.392;12.448;2024-02-23T14:06:51;9.00;89.50
1075;DHT22;526;51.392;12.448;2024-02-23T14:09:17;9.00;89.80
1075;DHT22;526;51.392;12.448;2024-02-23T14:11:42;9.00;88.60
1075;DHT22;526;51.392;12.448;2024-02-23T14:14:08;8.90;88.90
1075;DHT22;526;51.392;12.448;2024-02-23T14:16:34;9.00;89.20
1075;DHT22;526;51.392;12.448;2024-02-23T14:19:00;9.00;89.60
1075;DHT22;526;51.392;12.448;2024-02-23T14:21:26;9.00;89.60
1075;DHT22;526;51.392;12.448;2024-02-23T14:23:52;9.00;89.10
1075;DHT22;526;51.392;12.448;2024-02-23T14:26:17;8.90;89.30
1075;DHT22;526;51.392;12.448;2024-02-23T14:28:43;8.90;88.90
1075;DHT22;526;51.392;12.448;2024-02-23T14:31:08;8.90;89.40
1075;DHT22;526;51.392;12.448;2024-02-23T14:33:34;8.90;89.50
1075;DHT22;526;51.392;12.448;2024-02-23T14:36:00;8.90;90.00
1075;DHT22;526;51.392;12.448;2024-02-23T14:38:25;8.90;89.80
1075;DHT22;526;51.392;12.448;2024-02-23T14:40:51;8.90;89.60
1075;DHT22;526;51.392;12.448;2024-02-23T14:43:16;8.90;89.70
1075;DHT22;526;51.392;12.448;2024-02-23T14:45:42;8.80;89.20
1075;DHT22;526;51.392;12.448;2024-02-23T14:48:07;8.80;89.00
1075;DHT22;526;51.392;12.448;2024-02-23T14:50:33;8.80;89.10
1075;DHT22;526;51.392;12.448;2024-02-23T14:52:59;8.80;89.20
1075;DHT22;526;51.392;12.448;2024-02-23T14:55:25;8.70;89.40
1075;DHT22;526;51.392;12.448;2024-02-23T14:57:50;8.70;89.40
1075;DHT22;526;51.392;12.448;2024-02-23T15:00:16;8.70;89.30
1075;DHT22;526;51.392;12.448;2024-02-23T15:02:42;8.70;88.90
1075;DHT22;526;51.392;12.448;2024-02-23T15:05:08;8.60;88.50
1075;DHT22;526;51.392;12.448;2024-02-23T15:07:34;8.60;88.50
1075;DHT22;526;51.392;12.448;2024-02-23T15:10:01;8.60;88.70
1075;DHT22;526;51.392;12.448;2024-02-23T15:12:31;8.50;88.40
1075;DHT22;526;51.392;12.448;2024-02-23T15:14:57;8.40;88.10
1075;DHT22;526;51.392;12.448;2024-02-23T15:17:22;8.40;88.10
1075;DHT22;526;51.392;12.448;2024-02-23T15:19:48;8.40;88.40
1075;DHT22;526;51.392;12.448;2024-02-23T15:22:14;8.40;88.60
1075;DHT22;526;51.392;12.448;2024-02-23T15:24:41;8.40;88.70
1075;DHT22;526;51.392;12.448;2024-02-23T15:27:10;8.30;89.20
1075;DHT22;526;51.392;12.448;2024-02-23T15:29:36;8.30;89.30
1075;DHT22;526;51.392;12.448;2024-02-23T15:32:01;8.30;88.90
1075;DHT22;526;51.392;12.448;2024-02-23T15:34:27;8.30;88.50
1075;DHT22;526;51.392;12.448;2024-02-23T15:36:52;8.30;89.00
1075;DHT22;526;51.392;12.448;2024-02-23T15:39:19;8.20;89.30
1075;DHT22;526;51.392;12.448;2024-02-23T15:41:45;8.20;89.30
1075;DHT22;526;51.392;12.448;2024-02-23T15:44:10;8.20;89.60
1075;DHT22;526;51.392;12.448;2024-02-23T15:46:36;8.20;89.60
1075;DHT22;526;51.392;12.448;2024-02-23T15:49:01;8.20;89.70
1075;DHT22;526;51.392;12.448;2024-02-23T15:51:27;8.10;89.90
1075;DHT22;526;51.392;12.448;2024-02-23T15:53:59;8.10;90.00
1075;DHT22;526;51.392;12.448;2024-02-23T15:56:24;8.10;90.20
1075;DHT22;526;51.392;12.448;2024-02-23T15:58:50;8.00;90.50
1075;DHT22;526;51.392;12.448;2024-02-23T16:01:15;8.00;90.70
1075;DHT22;526;51.392;12.448;2024-02-23T16:03:41;8.00;91.00
1075;DHT22;526;51.392;12.448;2024-02-23T16:06:06;7.90;91.30
1075;DHT22;526;51.392;12.448;2024-02-23T16:11:12;7.90;92.00
1075;DHT22;526;51.392;12.448;2024-02-23T16:13:42;7.90;92.00
1075;DHT22;526;51.392;12.448;2024-02-23T16:16:09;7.90;92.30
1075;DHT22;526;51.392;12.448;2024-02-23T16:18:35;7.80;92.00
1075;DHT22;526;51.392;12.448;2024-02-23T16:21:01;7.80;92.00
1075;DHT22;526;51.392;12.448;2024-02-23T16:23:27;7.80;92.30
1075;DHT22;526;51.392;12.448;2024-02-23T16:25:54;7.80;91.90
1075;DHT22;526;51.392;12.448;2024-02-23T16:28:19;7.80;92.10
1075;DHT22;526;51.392;12.448;2024-02-23T16:30:45;7.70;92.00
1075;DHT22;526;51.392;12.448;2024-02-23T16:33:11;7.70;91.90
1075;DHT22;526;51.392;12.448;2024-02-23T16:35:36;7.70;92.20
1075;DHT22;526;51.392;12.448;2024-02-23T16:38:02;7.70;92.10
1075;DHT22;526;51.392;12.448;2024-02-23T16:40:27;7.70;91.50
1075;DHT22;526;51.392;12.448;2024-02-23T16:42:54;7.70;91.60
1075;DHT22;526;51.392;12.448;2024-02-23T16:45:21;7.70;91.60
1075;DHT22;526;51.392;12.448;2024-02-23T16:47:46;7.60;91.80
1075;DHT22;526;51.392;12.448;2024-02-23T16:50:12;7.60;91.90
1075;DHT22;526;51.392;12.448;2024-02-23T16:52:38;7.60;92.10
1075;DHT22;526;51.392;12.448;2024-02-23T16:55:05;7.50;92.50
1075;DHT22;526;51.392;12.448;2024-02-23T16:57:31;7.50;92.50
1075;DHT22;526;51.392;12.448;2024-02-23T16:59:56;7.40;92.40
1075;DHT22;526;51.392;12.448;2024-02-23T17:02:21;7.40;92.70
1075;DHT22;526;51.392;12.448;2024-02-23T17:04:47;7.40;92.70
1075;DHT22;526;51.392;12.448;2024-02-23T17:07:12;7.30;93.10
1075;DHT22;526;51.392;12.448;2024-02-23T17:09:38;7.30;93.10
1075;DHT22;526;51.392;12.448;2024-02-23T17:12:04;7.30;93.30
1075;DHT22;526;51.392;12.448;2024-02-23T17:14:30;7.20;93.50
1075;DHT22;526;51.392;12.448;2024-02-23T17:16:56;7.20;93.70
1075;DHT22;526;51.392;12.448;2024-02-23T17:19:21;7.20;93.40
1075;DHT22;526;51.392;12.448;2024-02-23T17:21:48;7.20;93.70
1075;DHT22;526;51.392;12.448;2024-02-23T17:24:14;7.10;93.80
1075;DHT22;526;51.392;12.448;2024-02-23T17:26:48;7.10;93.90
1075;DHT22;526;51.392;12.448;2024-02-23T17:29:14;7.10;94.00
1075;DHT22;526;51.392;12.448;2024-02-23T17:31:39;7.10;94.20
1075;DHT22;526;51.392;12.448;2024-02-23T17:34:05;7.00;94.40
1075;DHT22;526;51.392;12.448;2024-02-23T17:36:31;7.00;94.80
1075;DHT22;526;51.392;12.448;2024-02-23T17:38:56;7.00;95.10
1075;DHT22;526;51.392;12.448;2024-02-23T17:41:22;6.90;95.30
1075;DHT22;526;51.392;12.448;2024-02-23T17:43:47;6.90;95.50
1075;DHT22;526;51.392;12.448;2024-02-23T17:46:13;6.90;95.70
1075;DHT22;526;51.392;12.448;2024-02-23T17:48:38;6.90;95.90
1075;DHT22;526;51.392;12.448;2024-02-23T17:51:04;6.80;95.90
1075;DHT22;526;51.392;12.448;2024-02-23T17:53:30;6.70;96.20
1075;DHT22;526;51.392;12.448;2024-02-23T17:55:56;6.60;96.50
1075;DHT22;526;51.392;12.448;2024-02-23T17:58:26;6.50;96.90
1075;DHT22;526;51.392;12.448;2024-02-23T18:00:51;6.40;97.30
1075;DHT22;526;51.392;12.448;2024-02-23T18:03:17;6.40;97.30
1075;DHT22;526;51.392;12.448;2024-02-23T18:05:45;6.40;97.30
1075;DHT22;526;51.392;12.448;2024-02-23T18:08:11;6.40;97.30
1075;DHT22;526;51.392;12.448;2024-02-23T18:10:38;6.40;97.30
1075;DHT22;526;51.392;12.448;2024-02-23T18:13:04;6.30;97.30
1075;DHT22;526;51.392;12.448;2024-02-23T18:15:30;6.30;97.30
1075;DHT22;526;51.392;12.448;2024-02-23T18:17:55;6.30;97.30
1075;DHT22;526;51.392;12.448;2024-02-23T18:20:21;6.30;97.30
1075;DHT22;526;51.392;12.448;2024-02-23T18:22:46;6.30;97.30
1075;DHT22;526;51.392;12.448;2024-02-23T18:25:13;6.20;97.30
1075;DHT22;526;51.392;12.448;2024-02-23T18:27:40;6.20;97.30
1075;DHT22;526;51.392;12.448;2024-02-23T18:30:06;6.20;97.30
1075;DHT22;526;51.392;12.448;2024-02-23T18:32:31;6.20;97.30
1075;DHT22;526;51.392;12.448;2024-02-23T18:34:57;6.20;97.30
1075;DHT22;526;51.392;12.448;2024-02-23T18:37:22;6.20;97.30
1075;DHT22;526;51.392;12.448;2024-02-23T18:39:48;6.20;97.30
1075;DHT22;526;51.392;12.448;2024-02-23T18:42:13;6.20;97.30
1075;DHT22;526;51.392;12.448;2024-02-23T18:44:39;6.30;97.30
1075;DHT22;526;51.392;12.448;2024-02-23T18:47:04;6.30;97.30
1075;DHT22;526;51.392;12.448;2024-02-23T18:49:30;6.30;97.30
1075;DHT22;526;51.392;12.448;2024-02-23T18:51:58;6.30;97.30
1075;DHT22;526;51.392;12.448;2024-02-23T18:54:24;6.30;97.30
1075;DHT22;526;51.392;12.448;2024-02-23T18:56:50;6.30;97.30
1075;DHT22;526;51.392;12.448;2024-02-23T18:59:15;6.30;97.30
1075;DHT22;526;51.392;12.448;2024-02-23T19:01:41;6.20;97.30
1075;DHT22;526;51.392;12.448;2024-02-23T19:04:08;6.20;97.30
1075;DHT22;526;51.392;12.448;2024-02-23T19:06:34;6.10;97.30
1075;DHT22;526;51.392;12.448;2024-02-23T19:08:59;6.00;97.30
1075;DHT22;526;51.392;12.448;2024-02-23T19:11:25;6.00;97.30
1075;DHT22;526;51.392;12.448;2024-02-23T19:13:51;5.90;97.30
1075;DHT22;526;51.392;12.448;2024-02-23T19:16:16;5.80;97.30
1075;DHT22;526;51.392;12.448;2024-02-23T19:18:44;5.80;97.30
1075;DHT22;526;51.392;12.448;2024-02-23T19:21:10;5.70;97.30
1075;DHT22;526;51.392;12.448;2024-02-23T19:23:35;5.70;97.30
1075;DHT22;526;51.392;12.448;2024-02-23T19:26:01;5.60;97.30
1075;DHT22;526;51.392;12.448;2024-02-23T19:28:27;5.60;97.30
1075;DHT22;526;51.392;12.448;2024-02-23T19:30:53;5.50;97.30
1075;DHT22;526;51.392;12.448;2024-02-23T19:33:18;5.40;97.30
1075;DHT22;526;51.392;12.448;2024-02-23T19:35:44;5.30;97.30
1075;DHT22;526;51.392;12.448;2024-02-23T19:38:10;5.30;97.30
1075;DHT22;526;51.392;12.448;2024-02-23T19:40:35;5.30;97.30
1075;DHT22;526;51.392;12.448;2024-02-23T19:43:01;5.30;97.30
1075;DHT22;526;51.392;12.448;2024-02-23T19:45:26;5.30;97.30
1075;DHT22;526;51.392;12.448;2024-02-23T19:47:52;5.20;97.30
1075;DHT22;526;51.392;12.448;2024-02-23T19:50:18;5.30;97.30
1075;DHT22;526;51.392;12.448;2024-02-23T19:52:43;5.30;97.30
1075;DHT22;526;51.392;12.448;2024-02-23T19:55:09;5.10;97.30
1075;DHT22;526;51.392;12.448;2024-02-23T19:57:34;5.00;97.30
1075;DHT22;526;51.392;12.448;2024-02-23T20:00:00;4.90;97.30
1075;DHT22;526;51.392;12.448;2024-02-23T20:02:29;4.90;97.30
1075;DHT22;526;51.392;12.448;2024-02-23T20:04:54;4.90;97.30
1075;DHT22;526;51.392;12.448;2024-02-23T20:07:20;4.90;97.30
1075;DHT22;526;51.392;12.448;2024-02-23T20:09:46;4.90;97.30
1075;DHT22;526;51.392;12.448;2024-02-23T20:12:12;5.00;97.30
1075;DHT22;526;51.392;12.448;2024-02-23T20:14:38;5.00;97.30
1075;DHT22;526;51.392;12.448;2024-02-23T20:17:04;5.00;97.30
1075;DHT22;526;51.392;12.448;2024-02-23T20:19:29;5.00;97.30
1075;DHT22;526;51.392;12.448;2024-02-23T20:21:56;5.00;97.30
1075;DHT22;526;51.392;12.448;2024-02-23T20:24:22;4.90;97.30
1075;DHT22;526;51.392;12.448;2024-02-23T20:26:47;4.90;97.30
1075;DHT22;526;51.392;12.448;2024-02-23T20:29:13;4.80;97.30
1075;DHT22;526;51.392;12.448;2024-02-23T20:31:39;4.80;97.30
1075;DHT22;526;51.392;12.448;2024-02-23T20:34:07;4.80;97.30
1075;DHT22;526;51.392;12.448;2024-02-23T20:36:33;4.80;97.30
1075;DHT22;526;51.392;12.448;2024-02-23T20:38:58;4.80;97.30
1075;DHT22;526;51.392;12.448;2024-02-23T20:41:24;4.70;97.30
1075;DHT22;526;51.392;12.448;2024-02-23T20:43:51;4.70;97.30
1075;DHT22;526;51.392;12.448;2024-02-23T20:46:17;4.60;97.30
1075;DHT22;526;51.392;12.448;2024-02-23T20:48:42;4.50;97.30
1075;DHT22;526;51.392;12.448;2024-02-23T20:51:08;4.50;97.30
1075;DHT22;526;51.392;12.448;2024-02-23T20:53:34;4.40;97.30
1075;DHT22;526;51.392;12.448;2024-02-23T20:56:00;4.40;97.30
1075;DHT22;526;51.392;12.448;2024-02-23T20:58:26;4.20;97.30
1075;DHT22;526;51.392;12.448;2024-02-23T21:00:51;4.20;97.30
1075;DHT22;526;51.392;12.448;2024-02-23T21:03:17;4.10;97.30
1075;DHT22;526;51.392;12.448;2024-02-23T21:05:46;4.10;97.30
1075;DHT22;526;51.392;12.448;2024-02-23T21:08:12;4.20;97.30
1075;DHT22;526;51.392;12.448;2024-02-23T21:10:39;4.20;97.30
1075;DHT22;526;51.392;12.448;2024-02-23T21:13:05;4.10;97.30
1075;DHT22;526;51.392;12.448;2024-02-23T21:15:31;4.10;97.30